Terminal Aerodrome Forecast
Issued by NWS

Current Version | Previous Version | Graphics & Text | Print | Product List | Glossary On
Versions: 1 2 3 4 5 6 7 8 9 10 11 12 13 14 15 16 17 18
000
FTUS41 KPBZ 041417 AAA
TAFHLG
TAF AMD
KHLG 041417Z 0414/0512 VRB03KT 6SM BR BKN010
     FM041500 33008KT P6SM BKN025
     FM041700 32008KT P6SM SCT040
     FM050800 00000KT 2SM BR SKC=

USA.gov is the U.S. government's official web portal to all federal, state and local government web resources and services.